Latest Coastal Weather Observations for Willis Island

IDQ60701

Issued at 10:01 am EST Sunday 29 May 2016 (issued every 10 minutes, with the page automatically refreshed every 10 minutes)

About coastal observations | Map of coastal stations | Coastal observations for QLD | Marine services | Other Formats
Station Details ID: 200283 Name: WILLIS ISLAND Lat: -16.29 Lon: 149.97 Height: 9.29 m
Data from the previous 72 hours. | See also: Recent months at Willis Island
Date/Time
EST
Temp

°C
Wind Pressure Rain
since 9am
mm
Weather Cloud Vis
km
Sea
Height
m
Swell
Dir
 
Speed
knots
Gust
knots
hPa Trend Height
m
Period
s
Dir
29/10:00am 28.1 E 13 15 1016.1 - 0.0 - - - - - - -
29/09:30am 27.5 E 14 16 1016.1 - 0.0 - - - - - - -
29/09:00am 27.2 E 13 15 1016.1 R 0.0 Fine Mostly clear 30 1 0.7 7 E
29/08:30am 27.0 E 13 15 1016.1 - 0.0 - - - - - - -
29/08:00am 26.8 E 13 16 1015.7 - 0.0 - - - - - - -
29/07:30am 26.4 E 12 15 1015.4 - 0.0 - - - - - - -
29/07:00am 26.0 ESE 11 14 1015.2 - 0.0 - - - - - - -
29/06:30am 25.6 E 11 14 1014.8 - 0.0 - - - - - - -
29/06:00am 25.6 E 11 13 1014.5 S 0.0 - - - - - - -
29/05:30am 25.5 E 11 13 1014.2 - 0.0 - - - - - - -
29/05:00am 25.5 E 10 12 1014.1 - 0.0 - - - - - - -
29/04:30am 25.5 E 11 12 1014.0 - 0.0 - - - - - - -
29/04:00am 25.7 E 10 13 1014.0 - 0.0 - - - - - - -
29/03:30am 25.6 E 11 12 1014.0 - 0.0 - - - - - - -
29/03:00am 25.5 E 10 11 1013.9 R 0.0 - - - - - - -
29/02:30am 25.7 E 10 11 1013.9 - 0.0 - - - - - - -
29/02:00am 25.7 ENE 10 11 1013.9 - 0.0 - - - - - - -
29/01:30am 25.7 E 10 12 1014.2 - 0.0 - - - - - - -
29/01:00am 25.6 E 10 12 1014.4 - 0.0 - - - - - - -
29/12:30am 25.7 E 9 11 1014.7 - 0.0 - - - - - - -
29/12:00am 25.6 E 9 11 1014.8 R 0.0 - - - - - - -
 
Date/Time
EST
Temp

°C
Wind Pressure Rain
since 9am
mm
Weather Cloud Vis
km
Sea
Height
m
Swell
Dir
 
Speed
knots
Gust
knots
hPa Trend Height
m
Period
s
Dir
28/11:30pm 25.7 E 8 10 1015.1 - 0.0 - - - - - - -
28/11:00pm 25.7 E 8 10 1015.2 - 0.0 - - - - - - -
28/10:30pm 25.7 ESE 8 10 1015.3 - 0.0 - - - - - - -
28/10:00pm 25.5 ESE 8 10 1015.3 - 0.0 - - - - - - -
28/09:30pm 25.6 CALM 0 3 1015.5 - 0.0 - - - - - - -
28/09:00pm 25.6 CALM 0 3 1015.2 F 0.0 - - - - - - -
28/08:30pm 25.5 CALM 0 3 1015.1 - 0.0 - - - - - - -
28/08:00pm 25.5 CALM 0 1 1014.8 - 0.0 - - - - - - -
28/07:30pm 25.5 CALM 0 3 1014.7 - 0.0 - - - - - - -
28/07:00pm 25.8 CALM 0 3 1014.3 - 0.0 - - - - - - -
28/06:30pm 25.5 SSE 3 4 1014.1 - 0.0 - - - - - - -
28/06:00pm 26.0 SSW 4 5 1014.0 F 0.0 Fine Mostly clear 30 <0.5 0.5 7 E
28/05:30pm 26.4 SSW 3 5 1014.0 - 0.0 - - - - - - -
28/05:00pm 26.8 SSW 5 7 1013.8 - 0.0 - - - - - - -
28/04:30pm 27.7 SW 4 5 1013.6 - 0.0 - - - - - - -
28/04:00pm 27.7 SSW 4 5 1013.3 - 0.0 - - - - - - -
28/03:30pm 28.5 SW 4 5 1013.2 - 0.0 - - - - - - -
28/03:00pm 28.6 NW 4 5 1013.1 R 0.0 Fine Partly cloudy 30 <0.5 0.6 7 E
28/02:30pm 28.9 NNW 5 7 1013.1 - 0.0 - - - - - - -
28/02:00pm 28.8 N 6 8 1013.2 - 0.0 - - - - - - -
28/01:30pm 28.2 N 6 8 1013.3 - 0.0 - - - - - - -
28/01:00pm 28.5 N 6 8 1013.4 - 0.0 - - - - - - -
28/12:30pm 28.3 NNE 7 9 1013.9 - 0.0 - - - - - - -
28/12:00pm 27.9 N 7 9 1014.2 F 0.0 Fine Partly cloudy 30 1 0.6 7 E
28/11:30am 28.2 NNE 9 11 1014.4 - 0.0 - - - - - - -
28/11:00am 28.6 NNE 8 9 1014.9 - 0.0 - - - - - - -
28/10:30am 28.7 NNE 8 9 1015.3 - 0.0 - - - - - - -
28/10:00am 27.8 NNE 8 9 1015.5 - 0.0 - - - - - - -
28/09:30am 27.7 NNE 8 10 1015.8 - 0.0 - - - - - - -
28/09:00am 27.2 NNE 10 11 1015.9 R 0.0 Fine Partly cloudy 30 1 0.6 7 E
28/08:30am 27.2 NNE 10 11 1015.8 - 0.0 - - - - - - -
28/08:00am 26.8 NNE 9 11 1015.5 - 0.0 - - - - - - -
28/07:30am 26.5 NNE 10 11 1015.1 - 0.0 - - - - - - -
28/07:00am 26.2 NNE 11 13 1014.5 - 0.0 - - - - - - -
28/06:30am 25.6 NE 10 12 1014.1 - 0.0 - - - - - - -
28/06:00am 25.5 NE 10 11 1014.0 R 0.0 - - - - - - -
28/05:30am 25.5 NE 10 11 1013.7 - 0.0 - - - - - - -
28/05:00am 25.6 NE 9 11 1013.4 - 0.0 - - - - - - -
28/04:30am 25.4 NE 7 8 1013.3 - 0.0 - - - - - - -
28/04:00am 25.4 NE 7 8 1013.3 - 0.0 - - - - - - -
28/03:30am 25.4 NE 6 8 1013.0 - 0.0 - - - - - - -
28/03:00am 25.4 NNE 7 8 1012.8 R 0.0 - - - - - - -
28/02:30am 25.3 NE 6 7 1012.9 - 0.0 - - - - - - -
28/02:00am 25.5 NE 6 7 1013.1 - 0.0 - - - - - - -
28/01:30am 25.3 NE 5 6 1013.4 - 0.0 - - - - - - -
28/01:00am 25.2 NE 4 5 1013.6 - 0.0 - - - - - - -
28/12:30am 25.5 NNE 6 7 1013.8 - 0.0 - - - - - - -
28/12:00am 25.4 N 5 6 1013.8 R 0.0 - - - - - - -
 
Date/Time
EST
Temp

°C
Wind Pressure Rain
since 9am
mm
Weather Cloud Vis
km
Sea
Height
m
Swell
Dir
 
Speed
knots
Gust
knots
hPa Trend Height
m
Period
s
Dir
27/11:30pm 25.4 NE 2 5 1014.0 - 0.0 - - - - - - -
27/11:00pm 25.2 NE 3 5 1013.9 - 0.0 - - - - - - -
27/10:30pm 25.1 NE 3 5 1013.9 - 0.0 - - - - - - -
27/10:00pm 25.2 CALM 0 0 1013.9 - 0.0 - - - - - - -
27/09:30pm 25.6 CALM 0 0 1014.0 - 0.0 - - - - - - -
27/09:00pm 25.5 CALM 0 0 1013.8 F 0.0 - - - - - - -
27/08:30pm 25.6 CALM 0 0 1013.4 - 0.0 - - - - - - -
27/08:00pm 25.5 SSE 4 5 1013.3 - 0.0 - - - - - - -
27/07:30pm 25.6 SE 3 4 1013.2 - 0.0 - - - - - - -
27/07:00pm 25.7 CALM 0 3 1012.9 - 0.0 - - - - - - -
27/06:30pm 25.7 CALM 0 0 1012.7 - 0.0 - - - - - - -
27/06:00pm 26.0 CALM 0 0 1012.6 F 0.0 Fine Mostly clear 30 <0.1 0.5 7 E
27/05:30pm 26.6 CALM 0 3 1012.5 - 0.0 - - - - - - -
27/05:00pm 27.1 N 3 3 1012.3 - 0.0 - - - - - - -
27/04:30pm 27.6 N 3 4 1012.1 - 0.0 - - - - - - -
27/04:00pm 27.6 N 4 5 1012.0 - 0.0 - - - - - - -
27/03:30pm 27.9 N 4 5 1012.0 - 0.0 - - - - - - -
27/03:00pm 28.4 N 5 6 1012.0 F 0.0 Fine Mostly clear 30 <0.5 0.5 7 E
27/02:30pm 28.3 NNE 5 6 1012.2 - 0.0 - - - - - - -
27/02:00pm 28.2 NNE 4 6 1012.4 - 0.0 - - - - - - -
27/01:30pm 28.3 NNE 5 6 1012.6 - 0.0 - - - - - - -
27/01:00pm 28.5 NNE 5 5 1012.9 - 0.0 - - - - - - -
27/12:30pm 28.5 NE 4 5 1013.3 - 0.0 - - - - - - -
27/12:00pm 28.7 NE 4 6 1013.7 F 0.0 Fine Mostly clear 30 <0.5 0.5 7 E
27/11:30am 28.5 NNE 4 5 1014.2 - 0.0 - - - - - - -
27/11:00am 28.1 NE 4 5 1014.5 - 0.0 - - - - - - -
27/10:30am 28.6 ENE 2 5 1014.7 - 0.0 - - - - - - -
27/10:00am 28.0 E 3 4 1015.1 - 0.0 - - - - - - -
27/09:30am 28.4 ESE 3 4 1015.3 - 0.0 - - - - - - -
27/09:00am 28.2 E 3 4 1015.5 R 0.2 Fine Mostly clear 30 <0.5 0.5 7 E
27/08:30am 27.8 ENE 3 4 1015.4 - - - - - - - - -
27/08:00am 27.5 NE 4 4 1015.0 - - - - - - - - -
27/07:30am 27.0 ENE 4 5 1014.7 - - - - - - - - -
27/07:00am 26.4 NE 4 6 1014.3 - - - - - - - - -
27/06:30am 25.7 NE 6 7 1014.1 - - - - - - - - -
27/06:00am 25.7 NE 7 8 1013.8 R - - - - - - - -
27/05:30am 25.8 NE 7 8 1013.6 - - - - - - - - -
27/05:00am 25.8 NE 7 8 1013.5 - - - - - - - - -
27/04:30am 25.8 NE 7 9 1013.3 - - - - - - - - -
27/04:00am 26.0 NE 7 9 1013.2 - - - - - - - - -
27/03:30am 25.9 ENE 7 9 1013.0 - - - - - - - - -
27/03:00am 25.8 ENE 7 9 1013.0 R 0.2 - - - - - - -
27/02:30am 25.9 ENE 8 9 1013.1 - 0.2 - - - - - - -
27/02:00am 25.9 ENE 8 9 1013.4 - 0.2 - - - - - - -
27/01:30am 25.9 ENE 7 9 1013.6 - 0.2 - - - - - - -
27/01:00am 25.9 ENE 8 10 1013.7 - 0.2 - - - - - - -
27/12:30am 25.9 ENE 7 8 1014.0 - 0.2 - - - - - - -
27/12:00am 26.0 ENE 8 10 1014.0 R 0.2 - - - - - - -
 
Date/Time
EST
Temp

°C
Wind Pressure Rain
since 9am
mm
Weather Cloud Vis
km
Sea
Height
m
Swell
Dir
 
Speed
knots
Gust
knots
hPa Trend Height
m
Period
s
Dir
26/11:30pm 26.1 ENE 8 10 1014.1 - 0.2 - - - - - - -
26/11:00pm 26.0 ENE 9 10 1014.2 - 0.2 - - - - - - -
26/10:30pm 26.1 ENE 10 11 1014.3 - 0.2 - - - - - - -
26/10:00pm 26.2 ENE 10 12 1014.3 - 0.2 - - - - - - -
26/09:30pm 26.2 ENE 9 11 1014.4 - 0.2 - - - - - - -
26/09:00pm 26.0 E 10 11 1014.4 F 0.2 - - - - - - -
26/08:30pm 26.1 E 9 11 1014.5 - 0.2 - - - - - - -
26/08:00pm 26.1 E 9 11 1014.3 - 0.2 - - - - - - -
26/07:30pm 26.1 E 10 11 1014.1 - 0.2 - - - - - - -
26/07:00pm 26.0 E 10 11 1013.8 - 0.2 - - - - - - -
26/06:30pm 26.1 ENE 10 11 1013.5 - 0.2 - - - - - - -
26/06:00pm 26.2 E 9 11 1013.2 F 0.2 Fine Mostly clear 25 1 1.2 6 SE
26/05:30pm 26.3 E 10 11 1012.9 - 0.2 - - - - - - -
26/05:00pm 26.6 E 10 12 1012.8 - 0.2 - - - - - - -
26/04:30pm 27.0 E 9 11 1012.8 - 0.2 - - - - - - -
26/04:00pm 27.2 E 10 11 1012.8 - 0.2 - - - - - - -
26/03:30pm 27.3 ENE 11 13 1012.6 - 0.2 - - - - - - -
26/03:00pm 27.2 ENE 12 14 1012.5 F 0.2 Fine Mostly clear 30 1 1.2 6 SE
26/02:30pm 27.6 ENE 12 14 1012.8 - 0.2 - - - - - - -
26/02:00pm 27.1 NE 15 18 1012.8 - 0.2 - - - - - - -
26/01:30pm 26.6 ENE 14 15 1013.5 - 0.0 - - - - - - -
26/01:00pm 26.6 E 13 15 1014.2 - 0.0 - - - - - - -
26/12:30pm 26.2 ESE 5 10 1014.7 - 0.0 - - - - - - -
26/12:00pm 26.0 E 11 13 1015.0 R 0.0 Showers Mostly cloudy 20 1 1.2 7 SE
26/11:30am 27.2 ENE 13 14 1015.2 - 0.0 - - - - - - -
26/11:00am 26.9 E 11 15 1015.5 - 0.0 - - - - - - -
26/10:30am 28.4 E 11 13 1015.8 - 0.0 - - - - - - -

Other Formats:

Comma delimited format used in spreadsheet applications
http://www.bom.gov.au/fwo/IDQ60701/IDQ60701.94299.axf

JavaScript Object Notation format (JSON) in row-major order
http://www.bom.gov.au/fwo/IDQ60701/IDQ60701.94299.json